createdAt,value
2023-04-16T00:02:14.535Z,7.59
2023-04-16T00:04:41.862Z,7.63
2023-04-16T00:07:09.245Z,7.67
2023-04-16T00:09:39.530Z,7.70
2023-04-16T00:12:07.471Z,7.70
2023-04-16T00:14:35.690Z,7.68
2023-04-16T00:17:02.929Z,7.68
2023-04-16T00:19:30.981Z,7.70
2023-04-16T00:21:58.108Z,7.71
2023-04-16T00:24:25.390Z,7.70
2023-04-16T00:26:52.605Z,7.69
2023-04-16T00:29:20.452Z,7.65
2023-04-16T00:31:47.597Z,7.63
2023-04-16T00:34:15.393Z,7.65
2023-04-16T00:36:42.720Z,7.62
2023-04-16T00:39:10.576Z,7.62
2023-04-16T00:41:38.030Z,7.63
2023-04-16T00:44:06.042Z,7.65
2023-04-16T00:46:34.570Z,7.63
2023-04-16T00:49:02.328Z,7.62
2023-04-16T00:51:30.969Z,7.61
2023-04-16T00:53:58.535Z,7.58
2023-04-16T00:56:26.294Z,7.59
2023-04-16T00:58:56.300Z,7.62
2023-04-16T01:01:23.488Z,7.63
2023-04-16T01:03:51.019Z,7.61
2023-04-16T01:06:19.125Z,7.61
2023-04-16T01:08:46.357Z,7.62
2023-04-16T01:11:13.937Z,7.59
2023-04-16T01:13:43.300Z,7.61
2023-04-16T01:16:11.059Z,7.62
2023-04-16T01:18:38.695Z,7.60
2023-04-16T01:21:06.278Z,7.56
2023-04-16T01:23:33.580Z,7.56
2023-04-16T01:26:02.771Z,7.57
2023-04-16T01:28:31.081Z,7.54
2023-04-16T01:30:58.511Z,7.51
2023-04-16T01:33:34.726Z,7.48
2023-04-16T01:36:01.781Z,7.48
2023-04-16T01:38:29.269Z,7.49
2023-04-16T01:40:57.304Z,7.48
2023-04-16T01:43:24.757Z,7.46
2023-04-16T01:45:52.054Z,7.42
2023-04-16T01:48:19.481Z,7.40
2023-04-16T01:50:46.828Z,7.41
2023-04-16T01:53:14.062Z,7.44
2023-04-16T01:55:41.416Z,7.47
2023-04-16T01:58:10.630Z,7.49
2023-04-16T02:00:38.318Z,7.51
2023-04-16T02:03:06.410Z,7.50
2023-04-16T02:05:33.981Z,7.49
2023-04-16T02:08:01.530Z,7.48
2023-04-16T02:10:30.513Z,7.46
2023-04-16T02:12:58.500Z,7.42
2023-04-16T02:15:25.730Z,7.40
2023-04-16T02:17:56.368Z,7.39
2023-04-16T02:20:24.299Z,7.39
2023-04-16T02:22:55.095Z,7.36
2023-04-16T02:25:23.868Z,7.37
2023-04-16T02:27:51.522Z,7.40
2023-04-16T02:30:36.424Z,7.40
2023-04-16T02:33:05.310Z,7.39
2023-04-16T02:35:33.326Z,7.36
2023-04-16T02:38:01.457Z,7.34
2023-04-16T02:40:28.932Z,7.35
2023-04-16T02:42:56.353Z,7.36
2023-04-16T02:45:23.814Z,7.34
2023-04-16T02:47:51.395Z,7.32
2023-04-16T02:50:19.020Z,7.30
2023-04-16T02:52:46.423Z,7.26
2023-04-16T02:55:13.802Z,7.22
2023-04-16T02:57:41.997Z,7.19
2023-04-16T03:00:09.475Z,7.20
2023-04-16T03:02:37.458Z,7.18
2023-04-16T03:05:05.108Z,7.14
2023-04-16T03:07:32.877Z,7.09
2023-04-16T03:10:00.249Z,7.06
2023-04-16T03:12:27.790Z,7.06
2023-04-16T03:14:54.910Z,7.04
2023-04-16T03:17:22.240Z,7.00
2023-04-16T03:19:50.485Z,6.99
2023-04-16T03:22:19.870Z,7.00
2023-04-16T03:24:48.816Z,6.99
2023-04-16T03:27:16.406Z,7.00
2023-04-16T03:29:45.401Z,6.99
2023-04-16T03:32:12.726Z,6.97
2023-04-16T03:34:40.447Z,6.94
2023-04-16T03:37:11.327Z,6.94
2023-04-16T03:39:38.726Z,6.94
2023-04-16T03:42:06.058Z,6.94
2023-04-16T03:44:34.142Z,6.96
2023-04-16T03:47:01.858Z,6.97
2023-04-16T03:49:29.478Z,6.97
2023-04-16T03:51:56.854Z,6.97
2023-04-16T03:54:26.395Z,6.96
2023-04-16T03:57:02.022Z,6.93
2023-04-16T03:59:30.284Z,6.93
2023-04-16T04:01:58.689Z,6.94
2023-04-16T04:04:26.839Z,6.95
2023-04-16T04:06:55.120Z,6.98
2023-04-16T04:09:23.793Z,7.01
2023-04-16T04:11:51.114Z,7.03
2023-04-16T04:14:18.215Z,7.06
2023-04-16T04:16:45.556Z,7.07
2023-04-16T04:19:12.801Z,7.05
2023-04-16T04:21:40.232Z,7.07
2023-04-16T04:24:07.522Z,7.11
2023-04-16T04:26:35.161Z,7.15
2023-04-16T04:29:02.838Z,7.17
2023-04-16T04:31:30.563Z,7.21
2023-04-16T04:33:57.726Z,7.25
2023-04-16T04:36:26.948Z,7.28
2023-04-16T04:38:54.597Z,7.27
2023-04-16T04:41:22.400Z,7.31
2023-04-16T04:43:49.868Z,7.39
2023-04-16T04:46:17.566Z,7.45
2023-04-16T04:48:48.077Z,7.50
2023-04-16T04:51:16.810Z,7.60
2023-04-16T04:53:44.489Z,7.65
2023-04-16T04:56:13.042Z,7.69
2023-04-16T04:58:44.101Z,7.70
2023-04-16T05:01:12.082Z,7.73
2023-04-16T05:03:45.082Z,7.73
2023-04-16T05:06:12.594Z,7.78
2023-04-16T05:08:44.982Z,7.87
2023-04-16T05:11:14.414Z,7.95
2023-04-16T05:13:45.599Z,8.04
2023-04-16T05:16:17.104Z,8.06
2023-04-16T05:18:47.928Z,8.09
2023-04-16T05:21:16.640Z,8.13
2023-04-16T05:23:49.827Z,8.15
2023-04-16T05:26:22.746Z,8.19
2023-04-16T05:28:50.177Z,8.26
2023-04-16T05:31:19.935Z,8.31
2023-04-16T05:33:47.762Z,8.36
2023-04-16T05:36:15.488Z,8.39
2023-04-16T05:38:42.928Z,8.41
2023-04-16T05:41:10.822Z,8.44
2023-04-16T05:43:38.795Z,8.49
2023-04-16T05:46:05.887Z,8.55
2023-04-16T05:48:33.815Z,8.58
2023-04-16T05:51:02.267Z,8.59
2023-04-16T05:53:30.451Z,8.61
2023-04-16T05:55:57.504Z,8.63
2023-04-16T05:58:24.780Z,8.63
2023-04-16T06:00:52.325Z,8.63
2023-04-16T06:03:19.499Z,8.63
2023-04-16T06:05:47.116Z,8.68
2023-04-16T06:08:15.234Z,8.75
2023-04-16T06:10:42.709Z,8.84
2023-04-16T06:13:17.219Z,8.92
2023-04-16T06:16:06.313Z,9.06
2023-04-16T06:18:40.643Z,9.12
2023-04-16T06:21:08.238Z,9.16
2023-04-16T06:23:37.056Z,9.24
2023-04-16T06:26:22.868Z,9.35
2023-04-16T06:28:52.665Z,9.49
2023-04-16T06:31:22.660Z,9.66
2023-04-16T06:33:49.973Z,9.80
2023-04-16T06:36:17.393Z,9.99
2023-04-16T06:38:48.635Z,10.23
2023-04-16T06:41:16.040Z,10.39
2023-04-16T06:43:43.483Z,10.56
2023-04-16T06:46:11.973Z,10.72
2023-04-16T06:48:39.082Z,10.84
2023-04-16T06:51:06.613Z,10.94
2023-04-16T06:53:37.201Z,11.00
2023-04-16T06:56:06.495Z,11.04
2023-04-16T06:58:33.898Z,11.10
2023-04-16T07:01:02.177Z,11.26
2023-04-16T07:03:29.735Z,11.39
2023-04-16T07:06:06.729Z,11.45
2023-04-16T07:08:34.063Z,11.50
2023-04-16T07:11:01.422Z,11.48
2023-04-16T07:13:29.492Z,11.51
2023-04-16T07:15:58.586Z,11.60
2023-04-16T07:18:25.786Z,11.74
2023-04-16T07:20:54.575Z,11.91
2023-04-16T07:23:23.079Z,12.13
2023-04-16T07:26:10.852Z,12.27
2023-04-16T07:28:38.835Z,12.32
2023-04-16T07:31:06.161Z,12.28
2023-04-16T07:33:36.913Z,12.30
2023-04-16T07:36:05.382Z,12.37
2023-04-16T07:38:34.176Z,12.47
2023-04-16T07:41:01.428Z,12.57
2023-04-16T07:43:29.902Z,12.69
2023-04-16T07:45:57.391Z,12.77
2023-04-16T07:48:24.953Z,12.85
2023-04-16T07:50:52.266Z,12.97
2023-04-16T07:53:21.160Z,13.14
2023-04-16T07:55:50.882Z,13.19
2023-04-16T07:58:18.525Z,13.20
2023-04-16T08:00:52.345Z,13.24
2023-04-16T08:03:19.779Z,13.26
2023-04-16T08:05:47.447Z,13.31
2023-04-16T08:08:15.237Z,13.41
2023-04-16T08:10:42.999Z,13.49
2023-04-16T08:13:11.686Z,13.59
2023-04-16T08:15:39.612Z,13.69
2023-04-16T08:18:12.296Z,13.82
2023-04-16T08:20:40.839Z,13.97
2023-04-16T08:23:08.398Z,14.04
2023-04-16T08:25:35.644Z,14.00
2023-04-16T08:28:03.473Z,14.03
2023-04-16T08:30:30.861Z,14.02
2023-04-16T08:32:58.548Z,14.01
2023-04-16T08:35:25.777Z,14.06
2023-04-16T08:37:56.321Z,14.20
2023-04-16T08:40:25.368Z,14.29
2023-04-16T08:42:53.057Z,14.33
2023-04-16T08:45:21.501Z,14.43
2023-04-16T08:47:50.850Z,14.57
2023-04-16T08:50:22.250Z,14.68
2023-04-16T08:52:53.089Z,14.70
2023-04-16T08:55:33.245Z,14.72
2023-04-16T08:58:00.831Z,14.80
2023-04-16T09:00:28.073Z,14.92
2023-04-16T09:02:56.170Z,15.01
2023-04-16T09:05:26.235Z,15.03
2023-04-16T09:07:55.707Z,15.08
2023-04-16T09:10:23.681Z,15.11
2023-04-16T09:12:55.315Z,15.10
2023-04-16T09:15:22.842Z,15.17
2023-04-16T09:17:50.552Z,15.31
2023-04-16T09:20:17.993Z,15.47
2023-04-16T09:22:46.020Z,15.66
2023-04-16T09:25:13.299Z,15.81
2023-04-16T09:27:40.869Z,15.91
2023-04-16T09:30:21.725Z,15.98
2023-04-16T09:32:50.109Z,15.98
2023-04-16T09:35:20.096Z,15.97
2023-04-16T09:37:57.183Z,16.04
2023-04-16T09:40:30.036Z,16.16
2023-04-16T09:42:58.322Z,16.23
2023-04-16T09:45:25.950Z,16.16
2023-04-16T09:47:53.265Z,16.02
2023-04-16T09:50:21.098Z,15.90
2023-04-16T09:52:49.914Z,15.82
2023-04-16T09:55:23.437Z,15.82
2023-04-16T09:57:57.890Z,15.88
2023-04-16T10:00:25.487Z,15.97
2023-04-16T10:03:03.049Z,16.13
2023-04-16T10:05:30.845Z,16.29
2023-04-16T10:08:01.724Z,16.42
2023-04-16T10:10:30.912Z,16.51
2023-04-16T10:12:58.237Z,16.52
2023-04-16T10:15:25.815Z,16.54
2023-04-16T10:17:54.025Z,16.66
2023-04-16T10:20:22.350Z,16.82
2023-04-16T10:22:49.691Z,16.97
2023-04-16T10:25:17.160Z,17.15
2023-04-16T10:27:44.678Z,17.44
2023-04-16T10:30:13.906Z,17.82
2023-04-16T10:32:42.056Z,18.10
2023-04-16T10:35:09.802Z,18.25
2023-04-16T10:37:37.406Z,18.31
2023-04-16T10:40:22.260Z,18.27
2023-04-16T10:42:54.532Z,18.11
2023-04-16T10:45:31.537Z,17.95
2023-04-16T10:47:59.163Z,17.93
2023-04-16T10:50:36.061Z,18.00
2023-04-16T10:53:19.851Z,18.14
2023-04-16T10:55:58.930Z,18.20
2023-04-16T10:58:27.354Z,18.32
2023-04-16T11:00:55.590Z,18.68
2023-04-16T11:03:23.709Z,19.26
2023-04-16T11:05:51.755Z,19.85
2023-04-16T11:08:22.482Z,20.45
2023-04-16T11:10:51.134Z,21.01
2023-04-16T11:13:18.486Z,21.43
2023-04-16T11:15:47.589Z,21.76
2023-04-16T11:18:18.623Z,22.13
2023-04-16T11:20:46.004Z,22.41
2023-04-16T11:23:15.482Z,22.56
2023-04-16T11:25:42.940Z,22.65
2023-04-16T11:28:12.542Z,22.73
2023-04-16T11:30:41.233Z,22.98
2023-04-16T11:33:16.386Z,23.26
2023-04-16T11:35:45.666Z,23.50
2023-04-16T11:38:13.234Z,23.81
2023-04-16T11:40:42.138Z,24.12
2023-04-16T11:43:13.472Z,24.19
2023-04-16T11:45:54.025Z,24.14
2023-04-16T11:48:21.963Z,24.35
2023-04-16T11:50:55.495Z,24.71
2023-04-16T11:53:23.357Z,24.82
2023-04-16T11:55:51.508Z,24.72
2023-04-16T11:58:21.586Z,24.50
2023-04-16T12:00:52.941Z,24.06
2023-04-16T12:03:36.991Z,23.93
2023-04-16T12:06:08.601Z,24.20
2023-04-16T12:08:36.621Z,24.55
2023-04-16T12:11:05.359Z,24.83
2023-04-16T12:13:39.368Z,25.05
2023-04-16T12:16:20.738Z,25.23
2023-04-16T12:19:02.593Z,25.22
2023-04-16T12:21:59.428Z,25.06
2023-04-16T12:24:27.147Z,25.26
2023-04-16T12:27:02.607Z,25.50
2023-04-16T12:29:30.113Z,25.64
2023-04-16T12:31:57.708Z,25.83
2023-04-16T12:34:36.492Z,25.92
2023-04-16T12:37:14.433Z,25.94
2023-04-16T12:39:42.708Z,26.06
2023-04-16T12:42:12.435Z,26.17
2023-04-16T12:44:39.801Z,26.09
2023-04-16T12:47:27.715Z,25.82
2023-04-16T12:49:55.881Z,25.36
2023-04-16T12:52:27.699Z,24.99
2023-04-16T12:54:55.117Z,24.69
2023-04-16T12:57:28.084Z,24.35
2023-04-16T12:59:56.757Z,23.93
2023-04-16T13:02:24.413Z,23.62
2023-04-16T13:04:52.271Z,23.36
2023-04-16T13:07:20.993Z,23.11
2023-04-16T13:09:49.465Z,22.84
2023-04-16T13:12:18.062Z,22.54
2023-04-16T13:14:46.597Z,22.36
2023-04-16T13:17:14.700Z,22.27
2023-04-16T13:19:41.953Z,22.31
2023-04-16T13:22:11.727Z,22.35
2023-04-16T13:24:40.350Z,22.20
2023-04-16T13:27:08.321Z,22.07
2023-04-16T13:29:36.635Z,21.89
2023-04-16T13:32:04.973Z,21.75
2023-04-16T13:34:32.530Z,21.77
2023-04-16T13:37:00.702Z,21.84
2023-04-16T13:39:29.001Z,21.85
2023-04-16T13:41:57.355Z,21.85
2023-04-16T13:44:25.373Z,21.91
2023-04-16T13:46:54.056Z,22.09
2023-04-16T13:49:23.043Z,22.27
2023-04-16T13:51:50.869Z,22.27
2023-04-16T13:54:18.319Z,22.19
2023-04-16T13:56:45.575Z,22.26
2023-04-16T13:59:15.344Z,22.41
2023-04-16T14:01:42.490Z,22.49
2023-04-16T14:04:10.249Z,22.29
2023-04-16T14:06:38.373Z,22.02
2023-04-16T14:09:06.545Z,21.58
2023-04-16T14:11:36.972Z,21.07
2023-04-16T14:14:05.250Z,20.70
2023-04-16T14:16:33.165Z,20.35
2023-04-16T14:19:00.572Z,20.12
2023-04-16T14:21:28.472Z,19.90
2023-04-16T14:23:56.005Z,19.68
2023-04-16T14:26:23.246Z,19.49
2023-04-16T14:28:51.011Z,19.33
2023-04-16T14:31:19.641Z,19.17
2023-04-16T14:33:48.174Z,19.05
2023-04-16T14:36:16.055Z,18.89
2023-04-16T14:38:44.727Z,18.64
2023-04-16T14:41:13.411Z,18.42
2023-04-16T14:43:40.872Z,18.26
2023-04-16T14:46:08.622Z,18.13
2023-04-16T14:48:37.016Z,18.02
2023-04-16T14:51:04.195Z,17.91
2023-04-16T14:53:31.725Z,17.80
2023-04-16T14:55:59.194Z,17.70
2023-04-16T14:58:26.710Z,17.62
2023-04-16T15:00:53.966Z,17.54
2023-04-16T15:03:21.378Z,17.46
2023-04-16T15:05:54.662Z,17.38
2023-04-16T15:08:24.143Z,17.30
2023-04-16T15:10:51.820Z,17.28
2023-04-16T15:13:20.179Z,17.26
2023-04-16T15:15:48.687Z,17.22
2023-04-16T15:18:16.332Z,17.16
2023-04-16T15:20:43.611Z,17.12
2023-04-16T15:23:10.823Z,17.23
2023-04-16T15:25:38.117Z,17.44
2023-04-16T15:28:06.046Z,17.61
2023-04-16T15:30:34.187Z,17.66
2023-04-16T15:33:01.908Z,17.62
2023-04-16T15:35:29.956Z,17.54
2023-04-16T15:37:57.310Z,17.49
2023-04-16T15:40:24.864Z,17.50
2023-04-16T15:42:52.120Z,17.48
2023-04-16T15:45:19.557Z,17.37
2023-04-16T15:47:50.891Z,17.24
2023-04-16T15:50:18.933Z,17.08
2023-04-16T15:52:46.717Z,16.89
2023-04-16T15:55:15.238Z,16.70
2023-04-16T15:57:42.527Z,16.46
2023-04-16T16:00:15.130Z,16.25
2023-04-16T16:02:42.947Z,16.09
2023-04-16T16:05:13.359Z,15.94
2023-04-16T16:07:41.262Z,15.80
2023-04-16T16:10:10.126Z,15.69
2023-04-16T16:12:39.108Z,15.57
2023-04-16T16:15:07.000Z,15.47
2023-04-16T16:17:36.503Z,15.34
2023-04-16T16:20:04.147Z,15.20
2023-04-16T16:22:33.134Z,15.09
2023-04-16T16:25:00.592Z,14.98
2023-04-16T16:27:28.118Z,14.87
2023-04-16T16:29:55.606Z,14.78
2023-04-16T16:32:23.099Z,14.66
2023-04-16T16:34:51.334Z,14.54
2023-04-16T16:37:42.369Z,14.45
2023-04-16T16:40:10.683Z,14.35
2023-04-16T16:42:39.325Z,14.25
2023-04-16T16:45:08.407Z,14.16
2023-04-16T16:47:37.321Z,14.07
2023-04-16T16:50:05.668Z,13.97
2023-04-16T16:52:33.019Z,13.89
2023-04-16T16:55:00.927Z,13.79
2023-04-16T16:57:28.656Z,13.70
2023-04-16T16:59:58.884Z,13.61
2023-04-16T17:02:26.666Z,13.52
2023-04-16T17:04:54.512Z,13.44
2023-04-16T17:07:21.660Z,13.37
2023-04-16T17:09:49.115Z,13.31
2023-04-16T17:12:17.602Z,13.25
2023-04-16T17:14:49.271Z,13.19
2023-04-16T17:17:16.612Z,13.14
2023-04-16T17:19:43.908Z,13.08
2023-04-16T17:22:13.365Z,13.04
2023-04-16T17:24:41.574Z,12.97
2023-04-16T17:27:08.685Z,12.93
2023-04-16T17:29:36.293Z,12.89
2023-04-16T17:32:03.799Z,12.85
2023-04-16T17:34:31.258Z,12.79
2023-04-16T17:36:58.755Z,12.74
2023-04-16T17:39:26.380Z,12.69
2023-04-16T17:41:57.968Z,12.65
2023-04-16T17:44:27.078Z,12.61
2023-04-16T17:46:54.441Z,12.58
2023-04-16T17:49:21.838Z,12.55
2023-04-16T17:51:49.282Z,12.52
2023-04-16T17:54:16.644Z,12.47
2023-04-16T17:56:45.200Z,12.42
2023-04-16T17:59:12.130Z,12.36
2023-04-16T18:01:40.472Z,12.32
2023-04-16T18:04:07.852Z,12.28
2023-04-16T18:06:35.574Z,12.23
2023-04-16T18:09:05.344Z,12.19
2023-04-16T18:11:32.839Z,12.17
2023-04-16T18:14:00.908Z,12.16
2023-04-16T18:16:29.277Z,12.14
2023-04-16T18:18:56.840Z,12.11
2023-04-16T18:21:24.133Z,12.07
2023-04-16T18:23:51.487Z,12.03
2023-04-16T18:26:22.491Z,11.98
2023-04-16T18:28:50.453Z,11.95
2023-04-16T18:31:20.920Z,11.93
2023-04-16T18:33:55.595Z,11.91
2023-04-16T18:36:23.371Z,11.88
2023-04-16T18:39:00.891Z,11.84
2023-04-16T18:41:30.311Z,11.81
2023-04-16T18:43:58.180Z,11.78
2023-04-16T18:46:26.886Z,11.74
2023-04-16T18:48:54.305Z,11.72
2023-04-16T18:51:21.368Z,11.69
2023-04-16T18:53:48.889Z,11.67
2023-04-16T18:56:16.189Z,11.62
2023-04-16T18:58:44.197Z,11.57
2023-04-16T19:01:13.130Z,11.56
2023-04-16T19:03:40.579Z,11.52
2023-04-16T19:06:08.115Z,11.49
2023-04-16T19:08:35.665Z,11.47
2023-04-16T19:11:03.123Z,11.45
2023-04-16T19:13:31.787Z,11.40
2023-04-16T19:15:59.525Z,11.35
2023-04-16T19:18:27.440Z,11.31
2023-04-16T19:21:00.952Z,11.27
2023-04-16T19:23:28.725Z,11.24
2023-04-16T19:25:56.573Z,11.22
2023-04-16T19:28:24.330Z,11.16
2023-04-16T19:30:52.225Z,11.09
2023-04-16T19:33:19.866Z,11.04
2023-04-16T19:35:47.066Z,10.99
2023-04-16T19:38:16.677Z,10.96
2023-04-16T19:40:45.397Z,10.93
2023-04-16T19:43:12.728Z,10.90
2023-04-16T19:45:43.462Z,10.86
2023-04-16T19:48:11.185Z,10.84
2023-04-16T19:50:39.723Z,10.82
2023-04-16T19:53:07.490Z,10.78
2023-04-16T19:55:35.279Z,10.73
2023-04-16T19:58:05.742Z,10.70
2023-04-16T20:00:34.732Z,10.64
2023-04-16T20:03:02.108Z,10.60
2023-04-16T20:05:29.914Z,10.57
2023-04-16T20:07:57.411Z,10.51
2023-04-16T20:10:26.146Z,10.47
2023-04-16T20:12:53.502Z,10.44
2023-04-16T20:15:21.264Z,10.40
2023-04-16T20:17:49.348Z,10.38
2023-04-16T20:20:17.350Z,10.35
2023-04-16T20:22:44.779Z,10.31
2023-04-16T20:25:13.954Z,10.27
2023-04-16T20:27:41.634Z,10.22
2023-04-16T20:30:09.599Z,10.20
2023-04-16T20:32:37.610Z,10.14
2023-04-16T20:35:09.871Z,10.09
2023-04-16T20:37:41.694Z,10.06
2023-04-16T20:40:09.467Z,10.05
2023-04-16T20:42:36.922Z,10.00
2023-04-16T20:45:05.238Z,9.97
2023-04-16T20:47:35.910Z,9.95
2023-04-16T20:50:03.266Z,9.93
2023-04-16T20:52:30.826Z,9.91
2023-04-16T20:54:58.592Z,9.86
2023-04-16T20:57:27.686Z,9.84
2023-04-16T20:59:55.349Z,9.81
2023-04-16T21:02:23.829Z,9.79
2023-04-16T21:04:51.520Z,9.75
2023-04-16T21:07:19.158Z,9.72
2023-04-16T21:09:46.704Z,9.69
2023-04-16T21:12:14.230Z,9.67
2023-04-16T21:14:41.519Z,9.66
2023-04-16T21:17:08.973Z,9.63
2023-04-16T21:19:36.462Z,9.58
2023-04-16T21:22:04.019Z,9.54
2023-04-16T21:24:31.564Z,9.49
2023-04-16T21:26:59.376Z,9.45
2023-04-16T21:29:27.489Z,9.43
2023-04-16T21:31:55.469Z,9.41
2023-04-16T21:34:22.813Z,9.38
2023-04-16T21:36:50.371Z,9.36
2023-04-16T21:39:19.360Z,9.34
2023-04-16T21:41:46.720Z,9.32
2023-04-16T21:44:15.133Z,9.30
2023-04-16T21:46:42.474Z,9.26
2023-04-16T21:49:10.014Z,9.22
2023-04-16T21:51:40.048Z,9.20
2023-04-16T21:54:07.926Z,9.16
2023-04-16T21:56:35.763Z,9.14
2023-04-16T21:59:03.431Z,9.14
2023-04-16T22:01:31.495Z,9.12
2023-04-16T22:03:58.966Z,9.11
2023-04-16T22:06:26.813Z,9.07
2023-04-16T22:08:54.172Z,9.03
2023-04-16T22:11:22.246Z,9.01
2023-04-16T22:13:50.304Z,8.99
2023-04-16T22:16:17.772Z,8.94
2023-04-16T22:18:46.906Z,8.89
2023-04-16T22:21:14.177Z,8.87
2023-04-16T22:23:41.219Z,8.86
2023-04-16T22:26:08.827Z,8.85
2023-04-16T22:28:36.169Z,8.82
2023-04-16T22:31:03.936Z,8.81
2023-04-16T22:33:31.906Z,8.79
2023-04-16T22:35:59.502Z,8.76
2023-04-16T22:38:26.962Z,8.73
2023-04-16T22:40:54.384Z,8.70
2023-04-16T22:43:21.939Z,8.69
2023-04-16T22:45:49.378Z,8.69
2023-04-16T22:48:17.460Z,8.67
2023-04-16T22:50:47.905Z,8.63
2023-04-16T22:53:15.214Z,8.59
2023-04-16T22:55:42.513Z,8.56
2023-04-16T22:58:10.054Z,8.53
2023-04-16T23:00:37.107Z,8.51
2023-04-16T23:03:04.597Z,8.49
2023-04-16T23:05:32.057Z,8.48
2023-04-16T23:07:59.312Z,8.48
2023-04-16T23:10:29.453Z,8.46
2023-04-16T23:12:56.848Z,8.44
2023-04-16T23:15:24.310Z,8.43
2023-04-16T23:17:51.734Z,8.41
2023-04-16T23:20:19.314Z,8.39
2023-04-16T23:22:47.184Z,8.36
2023-04-16T23:25:14.945Z,8.35
2023-04-16T23:27:42.419Z,8.33
2023-04-16T23:30:10.276Z,8.31
2023-04-16T23:32:37.741Z,8.28
2023-04-16T23:35:06.121Z,8.27
2023-04-16T23:37:33.583Z,8.26
2023-04-16T23:40:00.898Z,8.24
2023-04-16T23:42:28.917Z,8.23
2023-04-16T23:44:56.336Z,8.23
2023-04-16T23:47:24.339Z,8.23
2023-04-16T23:49:51.803Z,8.21
2023-04-16T23:52:19.149Z,8.19
2023-04-16T23:54:46.474Z,8.17
2023-04-16T23:57:14.847Z,8.15
2023-04-16T23:59:41.999Z,8.13
